sensor_id;sensor_type;location;lat;lon;timestamp;temperature;humidity
52513;DHT22;38422;53.172;6.974;2022-10-28T00:01:17;15.50;99.90
52513;DHT22;38422;53.172;6.974;2022-10-28T00:03:46;15.50;99.90
52513;DHT22;38422;53.172;6.974;2022-10-28T00:06:17;15.50;99.90
52513;DHT22;38422;53.172;6.974;2022-10-28T00:08:44;15.50;99.90
52513;DHT22;38422;53.172;6.974;2022-10-28T00:11:17;15.40;99.90
52513;DHT22;38422;53.172;6.974;2022-10-28T00:13:43;15.40;99.90
52513;DHT22;38422;53.172;6.974;2022-10-28T00:16:13;15.40;99.90
52513;DHT22;38422;53.172;6.974;2022-10-28T00:18:39;15.30;99.90
52513;DHT22;38422;53.172;6.974;2022-10-28T00:21:07;15.30;99.90
52513;DHT22;38422;53.172;6.974;2022-10-28T00:23:34;15.30;99.90
52513;DHT22;38422;53.172;6.974;2022-10-28T00:26:24;15.30;99.90
52513;DHT22;38422;53.172;6.974;2022-10-28T00:28:56;15.30;99.90
52513;DHT22;38422;53.172;6.974;2022-10-28T00:31:23;15.30;99.90
52513;DHT22;38422;53.172;6.974;2022-10-28T00:33:49;15.20;99.90
52513;DHT22;38422;53.172;6.974;2022-10-28T00:38:47;15.30;99.90
52513;DHT22;38422;53.172;6.974;2022-10-28T00:41:17;15.30;99.90
52513;DHT22;38422;53.172;6.974;2022-10-28T00:43:53;15.30;99.90
52513;DHT22;38422;53.172;6.974;2022-10-28T00:46:28;15.30;99.90
52513;DHT22;38422;53.172;6.974;2022-10-28T00:49:19;15.30;99.90
52513;DHT22;38422;53.172;6.974;2022-10-28T00:51:48;15.30;99.90
52513;DHT22;38422;53.172;6.974;2022-10-28T00:54:15;15.30;99.90
52513;DHT22;38422;53.172;6.974;2022-10-28T00:56:45;15.30;99.90
52513;DHT22;38422;53.172;6.974;2022-10-28T00:59:17;15.20;99.90
52513;DHT22;38422;53.172;6.974;2022-10-28T01:01:44;15.20;99.90
52513;DHT22;38422;53.172;6.974;2022-10-28T01:04:10;15.20;99.90
52513;DHT22;38422;53.172;6.974;2022-10-28T01:06:36;15.20;99.90
52513;DHT22;38422;53.172;6.974;2022-10-28T01:09:02;15.20;99.90
52513;DHT22;38422;53.172;6.974;2022-10-28T01:11:52;15.20;99.90
52513;DHT22;38422;53.172;6.974;2022-10-28T01:14:21;15.20;99.90
52513;DHT22;38422;53.172;6.974;2022-10-28T01:17:00;15.20;99.90
52513;DHT22;38422;53.172;6.974;2022-10-28T01:35:35;15.30;99.90
52513;DHT22;38422;53.172;6.974;2022-10-28T01:46:27;15.20;99.90
52513;DHT22;38422;53.172;6.974;2022-10-28T01:49:16;15.20;99.90
52513;DHT22;38422;53.172;6.974;2022-10-28T01:51:47;15.20;99.90
52513;DHT22;38422;53.172;6.974;2022-10-28T01:54:18;15.10;99.90
52513;DHT22;38422;53.172;6.974;2022-10-28T01:56:46;15.10;99.90
52513;DHT22;38422;53.172;6.974;2022-10-28T01:59:16;15.00;99.90
52513;DHT22;38422;53.172;6.974;2022-10-28T02:01:43;15.10;99.90
52513;DHT22;38422;53.172;6.974;2022-10-28T02:04:08;15.00;99.90
52513;DHT22;38422;53.172;6.974;2022-10-28T02:06:36;15.00;99.90
52513;DHT22;38422;53.172;6.974;2022-10-28T02:09:31;15.00;99.90
52513;DHT22;38422;53.172;6.974;2022-10-28T02:15:01;14.90;99.90
52513;DHT22;38422;53.172;6.974;2022-10-28T02:23:17;14.80;99.90
52513;DHT22;38422;53.172;6.974;2022-10-28T02:25:55;14.80;99.90
52513;DHT22;38422;53.172;6.974;2022-10-28T02:28:39;14.80;99.90
52513;DHT22;38422;53.172;6.974;2022-10-28T02:31:41;14.80;99.90
52513;DHT22;38422;53.172;6.974;2022-10-28T02:34:12;14.70;99.90
52513;DHT22;38422;53.172;6.974;2022-10-28T02:36:43;14.70;99.90
52513;DHT22;38422;53.172;6.974;2022-10-28T02:39:10;14.70;99.90
52513;DHT22;38422;53.172;6.974;2022-10-28T02:41:43;14.70;99.90
52513;DHT22;38422;53.172;6.974;2022-10-28T02:44:17;14.70;99.90
52513;DHT22;38422;53.172;6.974;2022-10-28T02:46:49;14.60;99.90
52513;DHT22;38422;53.172;6.974;2022-10-28T02:49:15;14.60;99.90
52513;DHT22;38422;53.172;6.974;2022-10-28T02:51:51;14.50;99.90
52513;DHT22;38422;53.172;6.974;2022-10-28T02:54:25;14.50;99.90
52513;DHT22;38422;53.172;6.974;2022-10-28T02:56:56;14.50;99.90
52513;DHT22;38422;53.172;6.974;2022-10-28T02:59:24;14.40;99.90
52513;DHT22;38422;53.172;6.974;2022-10-28T03:01:52;14.40;99.90
52513;DHT22;38422;53.172;6.974;2022-10-28T03:04:18;14.40;99.90
52513;DHT22;38422;53.172;6.974;2022-10-28T03:06:44;14.40;99.90
52513;DHT22;38422;53.172;6.974;2022-10-28T03:09:09;14.30;99.90
52513;DHT22;38422;53.172;6.974;2022-10-28T03:11:35;14.30;99.90
52513;DHT22;38422;53.172;6.974;2022-10-28T03:14:01;14.30;99.90
52513;DHT22;38422;53.172;6.974;2022-10-28T03:16:27;14.30;99.90
52513;DHT22;38422;53.172;6.974;2022-10-28T03:18:53;14.20;99.90
52513;DHT22;38422;53.172;6.974;2022-10-28T03:21:18;14.20;99.90
52513;DHT22;38422;53.172;6.974;2022-10-28T03:23:44;14.20;99.90
52513;DHT22;38422;53.172;6.974;2022-10-28T03:26:10;14.20;99.90
52513;DHT22;38422;53.172;6.974;2022-10-28T03:28:36;14.20;99.90
52513;DHT22;38422;53.172;6.974;2022-10-28T03:31:01;14.20;99.90
52513;DHT22;38422;53.172;6.974;2022-10-28T03:33:27;14.10;99.90
52513;DHT22;38422;53.172;6.974;2022-10-28T03:35:53;14.10;99.90
52513;DHT22;38422;53.172;6.974;2022-10-28T03:38:18;14.10;99.90
52513;DHT22;38422;53.172;6.974;2022-10-28T03:40:47;14.10;99.90
52513;DHT22;38422;53.172;6.974;2022-10-28T03:43:13;14.10;99.90
52513;DHT22;38422;53.172;6.974;2022-10-28T03:45:39;14.00;99.90
52513;DHT22;38422;53.172;6.974;2022-10-28T03:48:05;14.00;99.90
52513;DHT22;38422;53.172;6.974;2022-10-28T03:50:30;14.00;99.90
52513;DHT22;38422;53.172;6.974;2022-10-28T03:52:56;14.00;99.90
52513;DHT22;38422;53.172;6.974;2022-10-28T03:55:22;14.00;99.90
52513;DHT22;38422;53.172;6.974;2022-10-28T03:57:52;14.00;99.90
52513;DHT22;38422;53.172;6.974;2022-10-28T04:00:18;14.00;99.90
52513;DHT22;38422;53.172;6.974;2022-10-28T04:02:51;14.10;99.90
52513;DHT22;38422;53.172;6.974;2022-10-28T04:05:17;14.10;99.90
52513;DHT22;38422;53.172;6.974;2022-10-28T04:07:43;14.00;99.90
52513;DHT22;38422;53.172;6.974;2022-10-28T04:10:09;14.10;99.90
52513;DHT22;38422;53.172;6.974;2022-10-28T04:12:35;14.10;99.90
52513;DHT22;38422;53.172;6.974;2022-10-28T04:15:01;14.10;99.90
52513;DHT22;38422;53.172;6.974;2022-10-28T04:17:27;14.10;99.90
52513;DHT22;38422;53.172;6.974;2022-10-28T04:19:53;14.10;99.90
52513;DHT22;38422;53.172;6.974;2022-10-28T04:22:18;14.00;99.90
52513;DHT22;38422;53.172;6.974;2022-10-28T04:24:44;14.10;99.90
52513;DHT22;38422;53.172;6.974;2022-10-28T04:27:10;14.00;99.90
52513;DHT22;38422;53.172;6.974;2022-10-28T04:29:35;14.00;99.90
52513;DHT22;38422;53.172;6.974;2022-10-28T04:32:01;14.00;99.90
52513;DHT22;38422;53.172;6.974;2022-10-28T04:34:27;14.00;99.90
52513;DHT22;38422;53.172;6.974;2022-10-28T04:36:53;14.00;99.90
52513;DHT22;38422;53.172;6.974;2022-10-28T04:39:18;14.00;99.90
52513;DHT22;38422;53.172;6.974;2022-10-28T04:41:44;14.00;99.90
52513;DHT22;38422;53.172;6.974;2022-10-28T04:44:10;13.90;99.90
52513;DHT22;38422;53.172;6.974;2022-10-28T04:46:35;13.90;99.90
52513;DHT22;38422;53.172;6.974;2022-10-28T04:49:01;13.90;99.90
52513;DHT22;38422;53.172;6.974;2022-10-28T04:51:27;13.90;99.90
52513;DHT22;38422;53.172;6.974;2022-10-28T04:53:53;13.90;99.90
52513;DHT22;38422;53.172;6.974;2022-10-28T04:56:19;13.90;99.90
52513;DHT22;38422;53.172;6.974;2022-10-28T04:58:46;14.00;99.90
52513;DHT22;38422;53.172;6.974;2022-10-28T05:01:12;14.00;99.90
52513;DHT22;38422;53.172;6.974;2022-10-28T05:03:38;14.00;99.90
52513;DHT22;38422;53.172;6.974;2022-10-28T05:06:04;14.00;99.90
52513;DHT22;38422;53.172;6.974;2022-10-28T05:08:30;14.00;99.90
52513;DHT22;38422;53.172;6.974;2022-10-28T05:10:55;14.00;99.90
52513;DHT22;38422;53.172;6.974;2022-10-28T05:13:21;14.00;99.90
52513;DHT22;38422;53.172;6.974;2022-10-28T05:15:48;14.10;99.90
52513;DHT22;38422;53.172;6.974;2022-10-28T05:18:14;14.10;99.90
52513;DHT22;38422;53.172;6.974;2022-10-28T05:20:39;14.10;99.90
52513;DHT22;38422;53.172;6.974;2022-10-28T05:23:05;14.10;99.90
52513;DHT22;38422;53.172;6.974;2022-10-28T05:25:31;14.10;99.90
52513;DHT22;38422;53.172;6.974;2022-10-28T05:27:58;14.10;99.90
52513;DHT22;38422;53.172;6.974;2022-10-28T05:30:24;14.10;99.90
52513;DHT22;38422;53.172;6.974;2022-10-28T05:32:50;14.00;99.90
52513;DHT22;38422;53.172;6.974;2022-10-28T05:35:15;14.00;99.90
52513;DHT22;38422;53.172;6.974;2022-10-28T05:37:42;14.00;99.90
52513;DHT22;38422;53.172;6.974;2022-10-28T05:40:08;14.10;99.90
52513;DHT22;38422;53.172;6.974;2022-10-28T05:42:40;14.00;99.90
52513;DHT22;38422;53.172;6.974;2022-10-28T05:45:07;14.00;99.90
52513;DHT22;38422;53.172;6.974;2022-10-28T05:47:33;14.00;99.90
52513;DHT22;38422;53.172;6.974;2022-10-28T05:49:58;14.10;99.90
52513;DHT22;38422;53.172;6.974;2022-10-28T05:52:24;14.00;99.90
52513;DHT22;38422;53.172;6.974;2022-10-28T05:54:50;14.00;99.90
52513;DHT22;38422;53.172;6.974;2022-10-28T05:57:15;14.00;99.90
52513;DHT22;38422;53.172;6.974;2022-10-28T05:59:41;14.00;99.90
52513;DHT22;38422;53.172;6.974;2022-10-28T06:02:12;14.00;99.90
52513;DHT22;38422;53.172;6.974;2022-10-28T06:04:40;14.00;99.90
52513;DHT22;38422;53.172;6.974;2022-10-28T06:07:06;14.00;99.90
52513;DHT22;38422;53.172;6.974;2022-10-28T06:09:31;14.00;99.90
52513;DHT22;38422;53.172;6.974;2022-10-28T06:11:57;14.00;99.90
52513;DHT22;38422;53.172;6.974;2022-10-28T06:14:23;14.00;99.90
52513;DHT22;38422;53.172;6.974;2022-10-28T06:16:49;14.00;99.90
52513;DHT22;38422;53.172;6.974;2022-10-28T06:19:14;14.00;99.90
52513;DHT22;38422;53.172;6.974;2022-10-28T06:21:40;14.00;99.90
52513;DHT22;38422;53.172;6.974;2022-10-28T06:24:06;14.00;99.90
52513;DHT22;38422;53.172;6.974;2022-10-28T06:26:33;14.00;99.90
52513;DHT22;38422;53.172;6.974;2022-10-28T06:28:58;14.00;99.90
52513;DHT22;38422;53.172;6.974;2022-10-28T06:31:24;14.00;99.90
52513;DHT22;38422;53.172;6.974;2022-10-28T06:33:50;14.00;99.90
52513;DHT22;38422;53.172;6.974;2022-10-28T06:36:16;14.00;99.90
52513;DHT22;38422;53.172;6.974;2022-10-28T06:38:41;14.00;99.90
52513;DHT22;38422;53.172;6.974;2022-10-28T06:41:07;14.00;99.90
52513;DHT22;38422;53.172;6.974;2022-10-28T06:43:33;14.00;99.90
52513;DHT22;38422;53.172;6.974;2022-10-28T06:46:03;14.00;99.90
52513;DHT22;38422;53.172;6.974;2022-10-28T06:48:30;14.00;99.90
52513;DHT22;38422;53.172;6.974;2022-10-28T06:50:58;14.00;99.90
52513;DHT22;38422;53.172;6.974;2022-10-28T06:53:24;14.00;99.90
52513;DHT22;38422;53.172;6.974;2022-10-28T06:55:54;14.00;99.90
52513;DHT22;38422;53.172;6.974;2022-10-28T06:58:21;14.00;99.90
52513;DHT22;38422;53.172;6.974;2022-10-28T07:00:47;14.00;99.90
52513;DHT22;38422;53.172;6.974;2022-10-28T07:03:13;14.10;99.90
52513;DHT22;38422;53.172;6.974;2022-10-28T07:05:39;14.10;99.90
52513;DHT22;38422;53.172;6.974;2022-10-28T07:08:05;14.10;99.90
52513;DHT22;38422;53.172;6.974;2022-10-28T07:10:30;14.10;99.90
52513;DHT22;38422;53.172;6.974;2022-10-28T07:12:56;14.10;99.90
52513;DHT22;38422;53.172;6.974;2022-10-28T07:15:22;14.20;99.90
52513;DHT22;38422;53.172;6.974;2022-10-28T07:17:55;14.20;99.90
52513;DHT22;38422;53.172;6.974;2022-10-28T07:20:22;14.20;99.90
52513;DHT22;38422;53.172;6.974;2022-10-28T07:22:55;14.20;99.90
52513;DHT22;38422;53.172;6.974;2022-10-28T07:25:21;14.20;99.90
52513;DHT22;38422;53.172;6.974;2022-10-28T07:27:47;14.30;99.90
52513;DHT22;38422;53.172;6.974;2022-10-28T07:30:12;14.30;99.90
52513;DHT22;38422;53.172;6.974;2022-10-28T07:32:38;14.30;99.90
52513;DHT22;38422;53.172;6.974;2022-10-28T07:35:04;14.30;99.90
52513;DHT22;38422;53.172;6.974;2022-10-28T07:37:30;14.30;99.90
52513;DHT22;38422;53.172;6.974;2022-10-28T07:39:55;14.40;99.90
52513;DHT22;38422;53.172;6.974;2022-10-28T07:42:21;14.50;99.90
52513;DHT22;38422;53.172;6.974;2022-10-28T07:44:47;14.50;99.90
52513;DHT22;38422;53.172;6.974;2022-10-28T07:47:12;14.50;99.90
52513;DHT22;38422;53.172;6.974;2022-10-28T07:49:38;14.60;99.90
52513;DHT22;38422;53.172;6.974;2022-10-28T07:52:04;14.60;99.90
52513;DHT22;38422;53.172;6.974;2022-10-28T07:54:29;14.60;99.90
52513;DHT22;38422;53.172;6.974;2022-10-28T07:56:56;14.70;99.90
52513;DHT22;38422;53.172;6.974;2022-10-28T07:59:23;14.70;99.90
52513;DHT22;38422;53.172;6.974;2022-10-28T08:01:49;14.80;99.90
52513;DHT22;38422;53.172;6.974;2022-10-28T08:04:15;14.80;99.90
52513;DHT22;38422;53.172;6.974;2022-10-28T08:07:17;14.90;99.90
52513;DHT22;38422;53.172;6.974;2022-10-28T08:09:45;14.90;99.90
52513;DHT22;38422;53.172;6.974;2022-10-28T08:12:14;14.90;99.90
52513;DHT22;38422;53.172;6.974;2022-10-28T08:14:40;14.90;99.90
52513;DHT22;38422;53.172;6.974;2022-10-28T08:17:06;15.00;99.90
52513;DHT22;38422;53.172;6.974;2022-10-28T08:19:31;15.00;99.90
52513;DHT22;38422;53.172;6.974;2022-10-28T08:21:58;15.10;99.90
52513;DHT22;38422;53.172;6.974;2022-10-28T08:24:23;15.10;99.90
52513;DHT22;38422;53.172;6.974;2022-10-28T08:26:50;15.20;99.90
52513;DHT22;38422;53.172;6.974;2022-10-28T08:29:15;15.20;99.90
52513;DHT22;38422;53.172;6.974;2022-10-28T08:31:41;15.30;99.90
52513;DHT22;38422;53.172;6.974;2022-10-28T08:34:07;15.30;99.90
52513;DHT22;38422;53.172;6.974;2022-10-28T08:36:32;15.40;99.90
52513;DHT22;38422;53.172;6.974;2022-10-28T08:38:58;15.40;99.90
52513;DHT22;38422;53.172;6.974;2022-10-28T08:47:36;15.50;99.90
52513;DHT22;38422;53.172;6.974;2022-10-28T08:50:19;15.60;99.90
52513;DHT22;38422;53.172;6.974;2022-10-28T08:52:57;15.60;99.90
52513;DHT22;38422;53.172;6.974;2022-10-28T08:55:33;15.70;99.90
52513;DHT22;38422;53.172;6.974;2022-10-28T09:00:33;15.80;99.90
52513;DHT22;38422;53.172;6.974;2022-10-28T09:03:28;15.90;99.90
52513;DHT22;38422;53.172;6.974;2022-10-28T09:06:04;16.00;99.90
52513;DHT22;38422;53.172;6.974;2022-10-28T09:08:34;16.10;99.90
52513;DHT22;38422;53.172;6.974;2022-10-28T09:16:31;16.50;99.90
52513;DHT22;38422;53.172;6.974;2022-10-28T09:30:27;16.90;99.90
52513;DHT22;38422;53.172;6.974;2022-10-28T09:35:35;17.00;99.90
52513;DHT22;38422;53.172;6.974;2022-10-28T09:38:28;17.10;99.90
52513;DHT22;38422;53.172;6.974;2022-10-28T09:41:01;17.10;99.90
52513;DHT22;38422;53.172;6.974;2022-10-28T09:43:39;17.20;99.90
52513;DHT22;38422;53.172;6.974;2022-10-28T09:46:12;17.20;99.90
52513;DHT22;38422;53.172;6.974;2022-10-28T09:51:23;17.30;99.90
52513;DHT22;38422;53.172;6.974;2022-10-28T09:53:55;17.30;99.90
52513;DHT22;38422;53.172;6.974;2022-10-28T09:56:22;17.30;99.90
52513;DHT22;38422;53.172;6.974;2022-10-28T09:58:47;17.40;99.90
52513;DHT22;38422;53.172;6.974;2022-10-28T10:01:16;17.40;99.90
52513;DHT22;38422;53.172;6.974;2022-10-28T10:03:42;17.50;99.90
52513;DHT22;38422;53.172;6.974;2022-10-28T10:06:42;17.50;99.90
52513;DHT22;38422;53.172;6.974;2022-10-28T10:09:02;17.50;99.90
52513;DHT22;38422;53.172;6.974;2022-10-28T10:14:05;17.70;99.90
52513;DHT22;38422;53.172;6.974;2022-10-28T10:18:58;17.70;99.90
52513;DHT22;38422;53.172;6.974;2022-10-28T10:24:29;17.80;99.90
52513;DHT22;38422;53.172;6.974;2022-10-28T10:26:57;17.80;99.90
52513;DHT22;38422;53.172;6.974;2022-10-28T10:29:24;17.90;99.90
52513;DHT22;38422;53.172;6.974;2022-10-28T10:32:07;17.90;99.90
52513;DHT22;38422;53.172;6.974;2022-10-28T10:34:57;18.00;99.90
52513;DHT22;38422;53.172;6.974;2022-10-28T10:37:25;18.00;99.90
52513;DHT22;38422;53.172;6.974;2022-10-28T10:39:59;18.00;99.90
52513;DHT22;38422;53.172;6.974;2022-10-28T10:42:25;18.10;99.90
52513;DHT22;38422;53.172;6.974;2022-10-28T10:44:59;18.10;99.90
52513;DHT22;38422;53.172;6.974;2022-10-28T10:47:26;18.10;99.90
52513;DHT22;38422;53.172;6.974;2022-10-28T10:49:51;18.10;99.90
52513;DHT22;38422;53.172;6.974;2022-10-28T10:52:21;18.10;99.90
52513;DHT22;38422;53.172;6.974;2022-10-28T10:55:01;18.10;99.90
52513;DHT22;38422;53.172;6.974;2022-10-28T10:57:27;18.10;99.90
52513;DHT22;38422;53.172;6.974;2022-10-28T10:59:54;18.10;99.90
52513;DHT22;38422;53.172;6.974;2022-10-28T11:02:30;18.20;99.90
52513;DHT22;38422;53.172;6.974;2022-10-28T11:05:00;18.30;99.90
52513;DHT22;38422;53.172;6.974;2022-10-28T11:07:27;18.40;99.90
52513;DHT22;38422;53.172;6.974;2022-10-28T11:09:53;18.50;99.90
52513;DHT22;38422;53.172;6.974;2022-10-28T11:12:35;18.50;99.90
52513;DHT22;38422;53.172;6.974;2022-10-28T11:17:40;18.60;99.90
52513;DHT22;38422;53.172;6.974;2022-10-28T11:23:13;18.70;99.90
52513;DHT22;38422;53.172;6.974;2022-10-28T11:25:43;18.80;99.90
52513;DHT22;38422;53.172;6.974;2022-10-28T11:31:54;18.90;99.90
52513;DHT22;38422;53.172;6.974;2022-10-28T11:48:14;19.40;99.90
52513;DHT22;38422;53.172;6.974;2022-10-28T12:10:24;20.00;99.90
52513;DHT22;38422;53.172;6.974;2022-10-28T12:19:02;20.00;99.90
52513;DHT22;38422;53.172;6.974;2022-10-28T12:22:11;20.00;99.90
52513;DHT22;38422;53.172;6.974;2022-10-28T12:24:30;19.90;99.90
52513;DHT22;38422;53.172;6.974;2022-10-28T12:27:00;19.90;99.90
52513;DHT22;38422;53.172;6.974;2022-10-28T12:29:30;19.90;99.90
52513;DHT22;38422;53.172;6.974;2022-10-28T12:32:07;20.00;99.90
52513;DHT22;38422;53.172;6.974;2022-10-28T12:34:45;20.00;99.90
52513;DHT22;38422;53.172;6.974;2022-10-28T12:37:17;20.00;99.90
52513;DHT22;38422;53.172;6.974;2022-10-28T12:42:31;20.00;99.90
52513;DHT22;38422;53.172;6.974;2022-10-28T12:45:00;20.00;99.90
52513;DHT22;38422;53.172;6.974;2022-10-28T12:50:19;19.90;99.90
52513;DHT22;38422;53.172;6.974;2022-10-28T12:55:46;19.90;99.90
52513;DHT22;38422;53.172;6.974;2022-10-28T13:00:45;19.80;99.90
52513;DHT22;38422;53.172;6.974;2022-10-28T13:03:14;19.80;99.90
52513;DHT22;38422;53.172;6.974;2022-10-28T13:14:01;19.80;99.90
52513;DHT22;38422;53.172;6.974;2022-10-28T13:27:36;19.70;99.90
52513;DHT22;38422;53.172;6.974;2022-10-28T13:30:02;19.70;99.90
52513;DHT22;38422;53.172;6.974;2022-10-28T13:34:58;19.70;99.90
52513;DHT22;38422;53.172;6.974;2022-10-28T13:37:32;19.70;99.90
52513;DHT22;38422;53.172;6.974;2022-10-28T13:39:59;19.70;99.90
52513;DHT22;38422;53.172;6.974;2022-10-28T13:44:57;19.70;99.90
52513;DHT22;38422;53.172;6.974;2022-10-28T13:47:29;19.80;99.90
52513;DHT22;38422;53.172;6.974;2022-10-28T13:52:31;19.90;99.90
52513;DHT22;38422;53.172;6.974;2022-10-28T13:54:57;19.90;99.90
52513;DHT22;38422;53.172;6.974;2022-10-28T13:57:27;20.00;99.90
52513;DHT22;38422;53.172;6.974;2022-10-28T14:00:06;20.00;99.90
52513;DHT22;38422;53.172;6.974;2022-10-28T14:02:40;20.00;99.90
52513;DHT22;38422;53.172;6.974;2022-10-28T14:05:13;20.10;99.90
52513;DHT22;38422;53.172;6.974;2022-10-28T14:08:03;20.10;99.90
52513;DHT22;38422;53.172;6.974;2022-10-28T14:10:31;20.10;99.90
52513;DHT22;38422;53.172;6.974;2022-10-28T14:13:20;20.00;99.90
52513;DHT22;38422;53.172;6.974;2022-10-28T14:15:47;20.00;99.90
52513;DHT22;38422;53.172;6.974;2022-10-28T14:36:42;19.70;99.90
52513;DHT22;38422;53.172;6.974;2022-10-28T14:39:25;19.60;99.90
52513;DHT22;38422;53.172;6.974;2022-10-28T14:53:38;19.40;99.90
52513;DHT22;38422;53.172;6.974;2022-10-28T14:56:05;19.30;99.90
52513;DHT22;38422;53.172;6.974;2022-10-28T14:58:42;19.30;99.90
52513;DHT22;38422;53.172;6.974;2022-10-28T15:03:44;19.30;99.90
52513;DHT22;38422;53.172;6.974;2022-10-28T15:06:31;19.20;99.90
52513;DHT22;38422;53.172;6.974;2022-10-28T15:09:03;19.20;99.90
52513;DHT22;38422;53.172;6.974;2022-10-28T15:11:30;19.20;99.90
52513;DHT22;38422;53.172;6.974;2022-10-28T15:14:10;19.10;99.90
52513;DHT22;38422;53.172;6.974;2022-10-28T15:16:45;19.10;99.90
52513;DHT22;38422;53.172;6.974;2022-10-28T15:19:21;19.10;99.90
52513;DHT22;38422;53.172;6.974;2022-10-28T15:22:01;19.10;99.90
52513;DHT22;38422;53.172;6.974;2022-10-28T15:24:27;19.10;99.90
52513;DHT22;38422;53.172;6.974;2022-10-28T15:26:54;19.00;99.90
52513;DHT22;38422;53.172;6.974;2022-10-28T15:29:20;19.00;99.90
52513;DHT22;38422;53.172;6.974;2022-10-28T15:34:47;18.90;99.90
52513;DHT22;38422;53.172;6.974;2022-10-28T15:37:21;18.90;99.90
52513;DHT22;38422;53.172;6.974;2022-10-28T15:39:51;18.90;99.90
52513;DHT22;38422;53.172;6.974;2022-10-28T15:44:55;18.80;99.90
52513;DHT22;38422;53.172;6.974;2022-10-28T15:47:28;18.80;99.90
52513;DHT22;38422;53.172;6.974;2022-10-28T15:52:42;18.70;99.90
52513;DHT22;38422;53.172;6.974;2022-10-28T15:55:31;18.60;99.90
52513;DHT22;38422;53.172;6.974;2022-10-28T15:58:02;18.60;99.90
52513;DHT22;38422;53.172;6.974;2022-10-28T16:03:26;18.50;99.90
52513;DHT22;38422;53.172;6.974;2022-10-28T16:05:54;18.50;99.90
52513;DHT22;38422;53.172;6.974;2022-10-28T16:08:28;18.50;99.90
52513;DHT22;38422;53.172;6.974;2022-10-28T16:11:03;18.40;99.90
52513;DHT22;38422;53.172;6.974;2022-10-28T16:13:33;18.40;99.90
52513;DHT22;38422;53.172;6.974;2022-10-28T16:16:11;18.30;99.90
52513;DHT22;38422;53.172;6.974;2022-10-28T16:18:47;18.30;99.90
52513;DHT22;38422;53.172;6.974;2022-10-28T16:21:22;18.20;99.90
52513;DHT22;38422;53.172;6.974;2022-10-28T16:23:50;18.20;99.90
52513;DHT22;38422;53.172;6.974;2022-10-28T16:26:16;18.20;99.90
52513;DHT22;38422;53.172;6.974;2022-10-28T16:28:42;18.10;99.90
52513;DHT22;38422;53.172;6.974;2022-10-28T16:31:14;18.10;99.90
52513;DHT22;38422;53.172;6.974;2022-10-28T16:33:40;18.10;99.90
52513;DHT22;38422;53.172;6.974;2022-10-28T16:36:06;18.00;99.90
52513;DHT22;38422;53.172;6.974;2022-10-28T16:38:35;18.00;99.90
52513;DHT22;38422;53.172;6.974;2022-10-28T16:41:02;18.00;99.90
52513;DHT22;38422;53.172;6.974;2022-10-28T16:43:30;17.90;99.90
52513;DHT22;38422;53.172;6.974;2022-10-28T16:45:58;17.90;99.90
52513;DHT22;38422;53.172;6.974;2022-10-28T16:48:25;17.90;99.90
52513;DHT22;38422;53.172;6.974;2022-10-28T16:51:00;17.90;99.90
52513;DHT22;38422;53.172;6.974;2022-10-28T16:53:27;17.90;99.90
52513;DHT22;38422;53.172;6.974;2022-10-28T16:55:53;17.80;99.90
52513;DHT22;38422;53.172;6.974;2022-10-28T16:58:32;17.80;99.90
52513;DHT22;38422;53.172;6.974;2022-10-28T17:00:59;17.80;99.90
52513;DHT22;38422;53.172;6.974;2022-10-28T17:03:25;17.80;99.90
52513;DHT22;38422;53.172;6.974;2022-10-28T17:05:50;17.80;99.90
52513;DHT22;38422;53.172;6.974;2022-10-28T17:08:16;17.80;99.90
52513;DHT22;38422;53.172;6.974;2022-10-28T17:10:42;17.80;99.90
52513;DHT22;38422;53.172;6.974;2022-10-28T17:13:12;17.80;99.90
52513;DHT22;38422;53.172;6.974;2022-10-28T17:15:39;17.80;99.90
52513;DHT22;38422;53.172;6.974;2022-10-28T17:18:05;17.70;99.90
52513;DHT22;38422;53.172;6.974;2022-10-28T17:20:31;17.70;99.90
52513;DHT22;38422;53.172;6.974;2022-10-28T17:22:57;17.70;99.90
52513;DHT22;38422;53.172;6.974;2022-10-28T17:25:24;17.70;99.90
52513;DHT22;38422;53.172;6.974;2022-10-28T17:27:54;17.70;99.90
52513;DHT22;38422;53.172;6.974;2022-10-28T17:30:20;17.70;99.90
52513;DHT22;38422;53.172;6.974;2022-10-28T17:32:51;17.70;99.90
52513;DHT22;38422;53.172;6.974;2022-10-28T17:35:17;17.70;99.90
52513;DHT22;38422;53.172;6.974;2022-10-28T17:37:43;17.70;99.90
52513;DHT22;38422;53.172;6.974;2022-10-28T17:40:09;17.60;99.90
52513;DHT22;38422;53.172;6.974;2022-10-28T17:42:35;17.70;99.90
52513;DHT22;38422;53.172;6.974;2022-10-28T17:45:01;17.60;99.90
52513;DHT22;38422;53.172;6.974;2022-10-28T17:47:27;17.60;99.90
52513;DHT22;38422;53.172;6.974;2022-10-28T17:49:53;17.60;99.90
52513;DHT22;38422;53.172;6.974;2022-10-28T17:52:19;17.60;99.90
52513;DHT22;38422;53.172;6.974;2022-10-28T17:54:45;17.60;99.90
52513;DHT22;38422;53.172;6.974;2022-10-28T17:57:10;17.60;99.90
52513;DHT22;38422;53.172;6.974;2022-10-28T17:59:36;17.60;99.90
52513;DHT22;38422;53.172;6.974;2022-10-28T18:02:02;17.60;99.90
52513;DHT22;38422;53.172;6.974;2022-10-28T18:04:28;17.60;99.90
52513;DHT22;38422;53.172;6.974;2022-10-28T18:06:55;17.60;99.90
52513;DHT22;38422;53.172;6.974;2022-10-28T18:09:22;17.60;99.90
52513;DHT22;38422;53.172;6.974;2022-10-28T18:11:49;17.60;99.90
52513;DHT22;38422;53.172;6.974;2022-10-28T18:14:16;17.50;99.90
52513;DHT22;38422;53.172;6.974;2022-10-28T18:16:42;17.60;99.90
52513;DHT22;38422;53.172;6.974;2022-10-28T18:19:10;17.60;99.90
52513;DHT22;38422;53.172;6.974;2022-10-28T18:21:36;17.60;99.90
52513;DHT22;38422;53.172;6.974;2022-10-28T18:24:02;17.60;99.90
52513;DHT22;38422;53.172;6.974;2022-10-28T18:26:33;17.50;99.90
52513;DHT22;38422;53.172;6.974;2022-10-28T18:28:59;17.60;99.90
52513;DHT22;38422;53.172;6.974;2022-10-28T18:31:29;17.60;99.90
52513;DHT22;38422;53.172;6.974;2022-10-28T18:33:54;17.50;99.90
52513;DHT22;38422;53.172;6.974;2022-10-28T18:36:22;17.50;99.90
52513;DHT22;38422;53.172;6.974;2022-10-28T18:38:49;17.60;99.90
52513;DHT22;38422;53.172;6.974;2022-10-28T18:41:17;17.50;99.90
52513;DHT22;38422;53.172;6.974;2022-10-28T18:43:44;17.50;99.90
52513;DHT22;38422;53.172;6.974;2022-10-28T18:46:10;17.50;99.90
52513;DHT22;38422;53.172;6.974;2022-10-28T18:48:36;17.40;99.90
52513;DHT22;38422;53.172;6.974;2022-10-28T18:51:05;17.40;99.90
52513;DHT22;38422;53.172;6.974;2022-10-28T18:53:34;17.40;99.90
52513;DHT22;38422;53.172;6.974;2022-10-28T18:56:01;17.40;99.90
52513;DHT22;38422;53.172;6.974;2022-10-28T18:58:26;17.40;99.90
52513;DHT22;38422;53.172;6.974;2022-10-28T19:00:52;17.40;99.90
52513;DHT22;38422;53.172;6.974;2022-10-28T19:03:22;17.30;99.90
52513;DHT22;38422;53.172;6.974;2022-10-28T19:05:48;17.30;99.90
52513;DHT22;38422;53.172;6.974;2022-10-28T19:08:14;17.30;99.90